Time;durP1;ratioP1;P1;durP2;ratioP2;P2;SDS_P1;SDS_P2;PMS_P1;PMS_P2;Temp;Humidity;BMP_temperature;BMP_pressure;BME280_temperature;BME280_humidity;BME280_pressure;Samples;Min_cycle;Max_cycle;Signal;HPM_P1;HPM_P2
2023/03/01 00:00:40;;;;;;;15.50;7.93;;;-1.30;99.90;;;-2.99;84.18;102719.16;5010346;28;20637;-76
2023/03/01 00:03:06;;;;;;;14.52;7.20;;;-1.30;99.90;;;-2.93;83.98;102718.53;4989415;28;20108;-76
2023/03/01 00:05:32;;;;;;;19.15;7.93;;;-1.20;99.90;;;-2.88;84.28;102717.00;5011362;28;20083;-76
2023/03/01 00:07:58;;;;;;;19.33;7.95;;;-1.10;99.90;;;-2.85;84.76;102716.25;4982267;28;20086;-76
2023/03/01 00:10:25;;;;;;;15.77;8.00;;;-1.10;99.90;;;-2.83;84.71;102712.94;4989270;28;20049;-76
2023/03/01 00:12:51;;;;;;;14.60;7.65;;;-1.10;99.90;;;-2.83;85.18;102702.63;4948174;28;20057;-76
2023/03/01 00:15:17;;;;;;;16.73;6.75;;;-1.10;99.90;;;-2.79;85.33;102699.31;4992473;28;20036;-76
2023/03/01 00:17:42;;;;;;;17.52;7.38;;;-1.00;99.90;;;-2.74;85.52;102699.53;4985238;28;20057;-75
2023/03/01 00:20:10;;;;;;;16.30;8.45;;;-1.00;99.90;;;-2.73;85.26;102694.41;4997958;28;20037;-75
2023/03/01 00:22:36;;;;;;;16.02;7.28;;;-1.00;99.90;;;-2.71;85.32;102697.94;5008058;28;20099;-75
2023/03/01 00:25:03;;;;;;;15.18;7.22;;;-1.10;99.90;;;-2.74;84.99;102695.25;5002389;28;20061;-76
2023/03/01 00:27:29;;;;;;;17.65;6.75;;;-1.10;99.90;;;-2.77;84.53;102695.13;5010332;28;20049;-76
2023/03/01 00:29:55;;;;;;;13.32;7.50;;;-1.10;99.90;;;-2.79;84.80;102685.56;4992815;28;20088;-76
2023/03/01 00:32:20;;;;;;;19.42;8.52;;;-1.10;99.90;;;-2.79;84.63;102688.13;5000563;28;20109;-76
2023/03/01 00:34:53;;;;;;;14.38;7.53;;;-1.10;99.90;;;-2.81;85.00;102682.91;5010071;28;20041;-76
2023/03/01 00:37:24;;;;;;;12.68;6.25;;;-1.10;99.90;;;-2.81;85.05;102675.19;4991551;28;20436;-75
2023/03/01 00:39:50;;;;;;;14.43;7.85;;;-1.10;99.90;;;-2.83;84.91;102692.31;4993635;28;20038;-76
2023/03/01 00:42:17;;;;;;;16.08;7.68;;;-1.10;99.90;;;-2.84;85.47;102685.38;5007793;28;20101;-76
2023/03/01 00:44:43;;;;;;;15.90;7.47;;;-1.10;99.90;;;-2.84;84.95;102687.97;4984928;28;20061;-76
2023/03/01 00:47:08;;;;;;;14.25;7.50;;;-1.20;99.90;;;-2.85;85.25;102682.72;5007583;28;20171;-75
2023/03/01 00:49:35;;;;;;;16.08;7.72;;;-1.10;99.90;;;-2.86;85.77;102684.44;4989359;28;20083;-76
2023/03/01 00:52:00;;;;;;;14.23;7.63;;;-1.20;99.90;;;-2.86;85.90;102683.56;4983473;28;20514;-76
2023/03/01 00:54:26;;;;;;;18.92;8.00;;;-1.20;99.90;;;-2.89;85.70;102680.06;4982768;28;20044;-76
2023/03/01 00:56:54;;;;;;;19.50;7.75;;;-1.20;99.90;;;-2.93;85.95;102672.13;4984113;28;20031;-76
2023/03/01 00:59:20;;;;;;;12.00;7.03;;;-1.20;99.90;;;-2.97;85.32;102673.69;5008938;28;20026;-76
2023/03/01 01:01:46;;;;;;;14.05;6.72;;;-1.30;99.90;;;-2.99;85.69;102672.75;5008822;28;20406;-76
2023/03/01 01:04:13;;;;;;;15.15;7.30;;;-1.30;99.90;;;-3.00;85.15;102660.69;5009172;28;20033;-76
2023/03/01 01:06:45;;;;;;;16.42;7.32;;;-1.30;99.90;;;-2.97;86.01;102665.09;5010354;28;20052;-75
2023/03/01 01:09:16;;;;;;;13.05;6.70;;;-1.30;99.90;;;-2.96;85.89;102661.69;4988249;28;20053;-76
2023/03/01 01:11:48;;;;;;;13.50;6.22;;;-1.30;99.90;;;-2.94;85.91;102660.06;4979250;28;20180;-76
2023/03/01 01:14:15;;;;;;;16.48;6.70;;;-1.30;99.90;;;-2.94;86.24;102665.19;4990574;28;20060;-76
2023/03/01 01:16:41;;;;;;;11.68;6.03;;;-1.20;99.90;;;-2.93;86.00;102666.97;5006688;28;20048;-76
2023/03/01 01:19:08;;;;;;;18.70;6.90;;;-1.30;99.90;;;-2.94;85.44;102673.84;5009119;28;20045;-76
2023/03/01 01:21:34;;;;;;;15.70;6.63;;;-1.30;99.90;;;-2.94;86.11;102670.34;4998964;28;20038;-77
2023/03/01 01:24:02;;;;;;;15.32;6.65;;;-1.30;99.90;;;-2.95;85.97;102666.91;4999193;28;20044;-76
2023/03/01 01:26:32;;;;;;;18.65;6.80;;;-1.30;99.90;;;-2.93;85.61;102664.41;4991264;28;20038;-76
2023/03/01 01:28:59;;;;;;;13.65;6.63;;;-1.30;99.90;;;-2.95;85.94;102660.88;5006275;28;20676;-76
2023/03/01 01:31:26;;;;;;;15.40;6.55;;;-1.30;99.90;;;-2.95;85.84;102658.31;4997959;28;20042;-76
2023/03/01 01:33:53;;;;;;;14.27;6.45;;;-1.30;99.90;;;-2.97;85.72;102657.38;5006543;28;20042;-76
2023/03/01 01:36:19;;;;;;;12.55;6.30;;;-1.30;99.90;;;-2.99;85.41;102666.72;5007832;28;20041;-76
2023/03/01 01:38:45;;;;;;;11.65;6.40;;;-1.30;99.90;;;-3.02;85.77;102661.44;4973619;28;20029;-76
2023/03/01 01:41:13;;;;;;;14.77;6.57;;;-1.40;99.90;;;-3.07;85.99;102666.41;4997919;28;20034;-76
2023/03/01 01:43:47;;;;;;;10.88;6.47;;;-1.40;99.90;;;-3.09;86.50;102655.16;5007563;28;20037;-76
2023/03/01 01:46:31;;;;;;;14.15;7.10;;;-1.40;99.90;;;-3.14;87.04;102659.25;5004719;28;20037;-76
2023/03/01 01:49:05;;;;;;;15.68;7.32;;;-1.40;99.90;;;-3.21;87.97;102659.84;5006504;28;20041;-76
2023/03/01 01:51:42;;;;;;;13.82;6.32;;;-1.50;99.90;;;-3.34;88.04;102667.03;4982318;28;20458;-76
2023/03/01 01:54:37;;;;;;;13.48;6.50;;;-1.50;99.90;;;-3.42;88.99;102667.53;4990293;28;20041;-76
2023/03/01 01:57:32;;;;;;;15.90;6.23;;;-1.60;99.90;;;-3.38;89.32;102660.00;5008956;28;20083;-76
2023/03/01 02:00:05;;;;;;;16.67;6.78;;;-1.50;99.90;;;-3.36;89.70;102658.38;5008765;28;20121;-76
2023/03/01 02:02:31;;;;;;;14.38;6.82;;;-1.50;99.90;;;-3.34;89.95;102659.31;4991460;28;20034;-76
2023/03/01 02:05:17;;;;;;;14.93;6.95;;;-1.50;99.90;;;-3.35;89.63;102655.00;5016221;28;20080;-75
2023/03/01 02:07:44;;;;;;;15.75;6.82;;;-1.60;99.90;;;-3.37;89.41;102655.72;5013407;28;20042;-76
2023/03/01 02:10:10;;;;;;;13.52;7.03;;;-1.60;99.90;;;-3.41;89.03;102649.59;4992969;28;20383;-76
2023/03/01 02:12:38;;;;;;;16.70;7.10;;;-1.60;99.90;;;-3.43;89.14;102648.63;4981095;28;20037;-76
2023/03/01 02:15:05;;;;;;;14.48;7.00;;;-1.60;99.90;;;-3.47;89.53;102644.19;4984693;28;20053;-76
2023/03/01 02:17:31;;;;;;;21.05;7.85;;;-1.60;99.90;;;-3.48;89.59;102633.81;4988408;28;20045;-76
2023/03/01 02:20:17;;;;;;;13.93;7.07;;;-1.60;99.90;;;-3.46;89.59;102635.63;4996149;28;20045;-76
2023/03/01 02:22:46;;;;;;;11.15;6.50;;;-1.60;99.90;;;-3.41;89.60;102636.72;5008233;28;20034;-76
2023/03/01 02:25:41;;;;;;;14.95;7.22;;;-1.60;99.90;;;-3.36;89.79;102624.00;5006162;28;20049;-76
2023/03/01 02:28:16;;;;;;;18.10;6.85;;;-1.60;99.90;;;-3.32;89.73;102631.94;4988503;28;20116;-76
2023/03/01 02:33:35;;;;;;;15.10;5.78;;;-1.50;99.90;;;-3.21;89.49;102631.50;4992545;28;20033;-76
2023/03/01 02:36:11;;;;;;;12.13;6.03;;;-1.50;99.90;;;-3.18;89.43;102627.31;5008161;28;20041;-76
2023/03/01 02:38:37;;;;;;;11.43;6.10;;;-1.50;99.90;;;-3.16;88.80;102620.53;4983730;28;20037;-76
2023/03/01 02:41:05;;;;;;;14.38;6.05;;;-1.40;99.90;;;-3.10;89.36;102627.63;5007179;28;20038;-76
2023/03/01 02:43:34;;;;;;;15.15;6.43;;;-1.40;99.90;;;-3.07;88.84;102626.88;4964385;28;20034;-76
2023/03/01 02:46:14;;;;;;;17.75;7.95;;;-1.30;99.90;;;-3.06;89.26;102619.22;5012322;28;20034;-75
2023/03/01 02:48:48;;;;;;;13.50;6.70;;;-1.30;99.90;;;-3.01;89.21;102617.69;5001754;28;20106;-76
2023/03/01 02:51:30;;;;;;;14.98;6.82;;;-1.30;99.90;;;-3.01;89.54;102614.25;4995853;28;20116;-76
2023/03/01 02:54:14;;;;;;;14.60;7.47;;;-1.30;99.90;;;-3.03;89.04;102600.41;5007732;28;20049;-75
2023/03/01 02:56:42;;;;;;;19.75;7.95;;;-1.30;99.90;;;-3.04;89.08;102606.41;5010727;28;20681;-76
2023/03/01 02:59:10;;;;;;;16.05;7.18;;;-1.30;99.90;;;-3.05;89.17;102608.06;5010279;28;20108;-76
2023/03/01 03:01:38;;;;;;;15.95;6.63;;;-1.30;99.90;;;-3.03;88.56;102600.41;5010780;28;20034;-75
2023/03/01 03:04:16;;;;;;;14.55;7.00;;;-1.30;99.90;;;-2.99;88.68;102597.13;4983353;28;20454;-75
2023/03/01 03:06:47;;;;;;;13.55;6.80;;;-1.30;99.90;;;-2.98;88.24;102612.66;4996717;28;20033;-75
2023/03/01 03:09:15;;;;;;;13.75;6.53;;;-1.30;99.90;;;-3.00;88.22;102615.97;4993238;28;20044;-75
2023/03/01 03:11:42;;;;;;;11.60;6.45;;;-1.30;99.90;;;-3.03;88.20;102600.41;5005702;28;20698;-75
2023/03/01 03:14:12;;;;;;;11.85;6.20;;;-1.40;99.90;;;-3.07;87.74;102603.69;5012347;28;20152;-75
2023/03/01 03:16:50;;;;;;;15.40;6.68;;;-1.40;99.90;;;-3.11;87.07;102598.41;5008964;28;20034;-76
2023/03/01 03:19:19;;;;;;;18.52;7.00;;;-1.40;99.90;;;-3.13;87.48;102602.63;4969469;28;20491;-75
2023/03/01 03:21:45;;;;;;;16.20;7.78;;;-1.40;99.90;;;-3.15;87.90;102604.28;5009666;28;20574;-75
2023/03/01 03:24:11;;;;;;;15.57;7.65;;;-1.50;99.90;;;-3.18;87.73;102592.94;5008653;28;20411;-75
2023/03/01 03:26:37;;;;;;;16.02;7.55;;;-1.50;99.90;;;-3.21;87.05;102593.72;4991470;28;20089;-75
2023/03/01 03:29:03;;;;;;;11.75;6.75;;;-1.50;99.90;;;-3.25;87.11;102583.22;5000598;28;20824;-75
2023/03/01 03:31:29;;;;;;;14.85;7.43;;;-1.60;99.90;;;-3.28;87.02;102583.09;5004049;28;20041;-75
2023/03/01 03:33:56;;;;;;;20.33;7.18;;;-1.60;99.90;;;-3.34;87.52;102576.88;4994414;28;20592;-75
2023/03/01 03:36:24;;;;;;;18.55;8.27;;;-1.60;99.90;;;-3.34;86.88;102574.31;5012401;28;20125;-75
2023/03/01 03:38:50;;;;;;;15.85;7.38;;;-1.60;99.90;;;-3.32;87.79;102575.25;4990780;28;20025;-76
2023/03/01 03:41:18;;;;;;;15.45;7.25;;;-1.60;99.90;;;-3.27;87.55;102574.56;5004599;28;20034;-76
2023/03/01 03:43:44;;;;;;;12.02;6.38;;;-1.60;99.90;;;-3.25;87.39;102572.91;4995146;28;20040;-75
2023/03/01 03:46:11;;;;;;;13.73;7.00;;;-1.60;99.90;;;-3.21;87.54;102574.81;4990071;28;20045;-75
2023/03/01 03:48:41;;;;;;;16.55;6.88;;;-1.50;99.90;;;-3.18;87.79;102568.06;4992709;28;20034;-75
2023/03/01 03:51:14;;;;;;;15.43;6.90;;;-1.50;99.90;;;-3.15;87.73;102559.59;5010319;28;20409;-75
2023/03/01 03:53:41;;;;;;;15.05;7.50;;;-1.50;99.90;;;-3.13;87.99;102563.97;4989846;28;20022;-75
2023/03/01 03:56:07;;;;;;;13.73;6.82;;;-1.40;99.90;;;-3.11;88.17;102562.34;4998148;28;20034;-76
2023/03/01 03:58:34;;;;;;;13.88;6.93;;;-1.40;99.90;;;-3.07;87.56;102568.47;5001289;28;20025;-75
2023/03/01 04:01:00;;;;;;;16.65;7.88;;;-1.40;99.90;;;-3.05;88.04;102558.22;5011010;28;20033;-75
2023/03/01 04:03:28;;;;;;;14.48;6.90;;;-1.40;99.90;;;-3.03;87.40;102560.03;5006600;28;20137;-75
2023/03/01 04:05:54;;;;;;;15.48;7.40;;;-1.40;99.90;;;-3.06;88.18;102564.22;4976603;28;20060;-76
2023/03/01 04:08:22;;;;;;;17.92;7.40;;;-1.40;99.90;;;-3.03;87.78;102554.03;4973639;28;20034;-75
2023/03/01 04:10:52;;;;;;;16.77;7.95;;;-1.40;99.90;;;-3.04;87.80;102548.00;4984127;28;20401;-75
2023/03/01 04:13:22;;;;;;;13.88;6.97;;;-1.40;99.90;;;-3.05;87.65;102542.78;5010604;28;20057;-76
2023/03/01 04:15:54;;;;;;;17.77;7.70;;;-1.40;99.90;;;-3.05;88.14;102540.19;5007725;28;20038;-75
2023/03/01 04:18:24;;;;;;;12.90;6.82;;;-1.40;99.90;;;-3.05;88.07;102547.91;4984207;28;20061;-75
2023/03/01 04:20:52;;;;;;;16.67;7.22;;;-1.40;99.90;;;-3.11;87.75;102546.88;4992067;28;20041;-75
2023/03/01 04:23:20;;;;;;;16.48;7.70;;;-1.40;99.90;;;-3.13;87.78;102551.09;4981443;28;20671;-75
2023/03/01 04:25:54;;;;;;;14.20;7.43;;;-1.40;99.90;;;-3.16;87.82;102545.81;4969839;28;20045;-75
2023/03/01 04:28:45;;;;;;;13.45;7.38;;;-1.50;99.90;;;-3.19;88.00;102543.13;4991995;28;20092;-75
2023/03/01 04:31:17;;;;;;;20.08;8.38;;;-1.50;99.90;;;-3.16;88.17;102543.22;5006311;28;20037;-75
2023/03/01 04:33:55;;;;;;;24.58;10.68;;;-1.40;99.90;;;-3.13;88.32;102552.81;4985250;28;20035;-75
2023/03/01 04:36:30;;;;;;;16.35;7.78;;;-1.40;99.90;;;-3.08;88.72;102563.28;4991775;28;20038;-75
2023/03/01 04:38:56;;;;;;;15.30;6.83;;;-1.40;99.90;;;-3.05;88.94;102559.09;4999970;28;20050;-75
2023/03/01 04:41:24;;;;;;;15.48;6.75;;;-1.30;99.90;;;-3.03;89.03;102556.59;5011721;28;20037;-76
2023/03/01 04:43:50;;;;;;;13.52;6.30;;;-1.30;99.90;;;-3.01;89.27;102555.81;4991485;28;20057;-76
2023/03/01 04:46:19;;;;;;;18.88;7.50;;;-1.10;99.90;;;-3.00;88.80;102551.53;4990026;28;20033;-76
2023/03/01 04:48:47;;;;;;;15.80;7.72;;;-1.30;99.90;;;-2.98;89.30;102552.47;4989417;28;20410;-75
2023/03/01 04:51:15;;;;;;;17.45;7.93;;;-1.30;99.90;;;-2.98;88.99;102548.22;5012471;28;20049;-76
2023/03/01 04:53:42;;;;;;;16.75;7.95;;;-1.30;99.90;;;-2.98;88.31;102552.47;4974109;28;20110;-75
2023/03/01 04:56:08;;;;;;;20.73;7.57;;;-1.30;99.90;;;-2.99;88.65;102553.31;5001591;28;20022;-75
2023/03/01 04:58:34;;;;;;;19.33;7.63;;;-1.30;99.90;;;-3.03;88.08;102535.97;5001072;28;20053;-76
2023/03/01 05:01:00;;;;;;;16.88;7.65;;;-1.40;99.90;;;-3.07;88.36;102532.41;5012500;28;20494;-75
2023/03/01 05:03:26;;;;;;;19.60;7.95;;;-1.40;99.90;;;-3.12;87.73;102537.38;5009653;28;20033;-75
2023/03/01 05:05:53;;;;;;;16.10;7.60;;;-1.40;99.90;;;-3.17;87.55;102535.47;4993556;28;20518;-75
2023/03/01 05:08:20;;;;;;;14.68;7.68;;;-1.50;99.90;;;-3.22;87.38;102544.69;5002819;28;20104;-75
2023/03/01 05:10:51;;;;;;;25.10;8.45;;;-1.50;99.90;;;-3.28;87.46;102535.03;5009165;28;20498;-75
2023/03/01 05:13:21;;;;;;;38.47;9.10;;;-1.50;99.90;;;-3.31;87.68;102530.63;5007814;28;20045;-75
2023/03/01 05:16:00;;;;;;;23.63;7.53;;;-1.60;99.90;;;-3.28;88.08;102524.72;4976990;28;20038;-74
2023/03/01 05:18:30;;;;;;;17.38;7.72;;;-1.60;99.90;;;-3.29;88.39;102525.53;5005450;28;20397;-75
2023/03/01 05:21:11;;;;;;;14.32;7.55;;;-1.60;99.90;;;-3.30;88.45;102531.53;4980507;28;20163;-75
2023/03/01 05:23:38;;;;;;;13.77;7.45;;;-1.60;99.90;;;-3.29;88.57;102522.97;5008486;28;20173;-75
2023/03/01 05:26:06;;;;;;;13.45;7.25;;;-1.60;99.90;;;-3.28;88.51;102513.53;5008420;28;20042;-75
2023/03/01 05:28:32;;;;;;;15.35;7.30;;;-1.60;99.90;;;-3.27;88.60;102515.31;4994310;28;20030;-75
2023/03/01 05:31:00;;;;;;;16.85;7.38;;;-1.60;99.90;;;-3.27;88.64;102518.75;4981093;28;20049;-75
2023/03/01 05:33:27;;;;;;;16.48;6.78;;;-1.60;99.90;;;-3.25;88.88;102504.22;4991569;28;20120;-75
2023/03/01 05:35:54;;;;;;;17.48;7.05;;;-1.60;99.90;;;-3.24;88.77;102506.00;4994976;28;20387;-75
2023/03/01 05:38:21;;;;;;;11.93;6.40;;;-1.50;99.90;;;-3.22;88.97;102501.75;5006782;28;21220;-75
2023/03/01 05:40:49;;;;;;;14.25;6.38;;;-1.50;99.90;;;-3.19;88.91;102516.47;5002551;28;20022;-75
2023/03/01 05:43:16;;;;;;;15.25;6.63;;;-1.50;99.90;;;-3.18;89.23;102511.38;4990302;28;20029;-75
2023/03/01 05:45:43;;;;;;;12.05;6.57;;;-1.50;99.90;;;-3.17;89.40;102513.13;5008678;28;20049;-75
2023/03/01 05:48:11;;;;;;;13.55;6.43;;;-1.50;99.90;;;-3.22;89.20;102512.06;5008885;28;20124;-75
2023/03/01 05:50:44;;;;;;;12.90;6.95;;;-1.50;99.90;;;-3.27;88.52;102521.31;5020355;28;20037;-75
2023/03/01 05:53:17;;;;;;;13.27;6.68;;;-1.60;99.90;;;-3.32;88.61;102528.88;4989117;28;20038;-76
2023/03/01 05:55:45;;;;;;;14.38;6.75;;;-1.60;99.90;;;-3.36;88.48;102539.00;4980387;28;20029;-75
2023/03/01 05:58:15;;;;;;;16.65;7.32;;;-1.60;99.90;;;-3.38;89.00;102540.63;5006102;28;20124;-75
2023/03/01 06:00:42;;;;;;;14.82;6.90;;;-1.60;99.90;;;-3.36;89.23;102537.31;5010767;28;20603;-75
2023/03/01 06:03:14;;;;;;;12.70;6.68;;;-1.60;99.90;;;-3.28;89.87;102537.63;4988050;28;20046;-76
2023/03/01 06:05:41;;;;;;;14.45;7.43;;;-1.50;99.90;;;-3.20;90.39;102536.19;5007336;28;20078;-75
2023/03/01 06:08:07;;;;;;;13.82;7.03;;;-1.50;99.90;;;-3.09;89.85;102536.59;4997132;28;20076;-75
2023/03/01 06:10:33;;;;;;;15.90;6.63;;;-1.40;99.90;;;-3.03;90.04;102530.81;4988895;28;20038;-76
2023/03/01 06:12:59;;;;;;;14.80;6.70;;;-1.40;99.90;;;-2.95;90.44;102542.31;4990006;28;20042;-75
2023/03/01 06:15:25;;;;;;;11.60;5.90;;;-1.30;99.90;;;-2.83;90.25;102532.47;5000730;28;20034;-75
2023/03/01 06:17:54;;;;;;;13.18;6.60;;;-1.20;99.90;;;-2.73;90.17;102537.13;4983995;28;20515;-76
2023/03/01 06:20:23;;;;;;;15.48;6.82;;;-1.10;99.90;;;-2.59;89.73;102529.91;4980017;28;20046;-75
2023/03/01 06:22:49;;;;;;;11.70;6.35;;;-1.10;99.90;;;-2.47;89.05;102532.91;4991671;28;20033;-75
2023/03/01 06:25:19;;;;;;;13.85;6.57;;;-1.00;99.90;;;-2.34;88.26;102528.19;5013303;28;20037;-75
2023/03/01 06:27:45;;;;;;;21.52;6.93;;;-0.90;99.90;;;-2.19;87.36;102538.19;4995570;28;20376;-75
2023/03/01 06:30:14;;;;;;;21.80;7.07;;;-0.90;99.90;;;-2.08;86.65;102535.13;4996216;28;20037;-75
2023/03/01 06:32:43;;;;;;;13.57;7.18;;;-0.80;99.90;;;-1.97;85.76;102537.22;5011776;28;20612;-75
2023/03/01 06:35:11;;;;;;;23.20;7.85;;;-0.70;99.90;;;-1.81;85.48;102536.00;4986650;28;20417;-75
2023/03/01 06:37:37;;;;;;;20.25;7.30;;;-0.60;99.90;;;-1.56;84.85;102538.56;5011184;28;20079;-75
2023/03/01 06:40:08;;;;;;;13.48;6.93;;;-0.50;99.90;;;-1.10;83.92;102546.88;5011526;28;20049;-75
2023/03/01 06:42:40;;;;;;;14.73;7.22;;;-0.30;99.90;;;-0.73;83.12;102545.44;5006469;28;20522;-75
2023/03/01 06:45:07;;;;;;;13.52;6.55;;;-0.10;99.90;;;-0.52;82.01;102542.56;4999663;28;20402;-75
2023/03/01 06:47:34;;;;;;;16.00;5.97;;;0.10;99.90;;;-0.15;80.47;102549.66;4994167;28;20030;-76
2023/03/01 06:50:02;;;;;;;12.20;6.07;;;0.40;99.90;;;0.62;78.81;102556.75;5012009;28;20404;-75
2023/03/01 06:52:28;;;;;;;12.65;6.63;;;0.70;99.90;;;1.84;76.24;102563.69;4993499;28;20482;-75
2023/03/01 06:54:54;;;;;;;9.85;5.63;;;1.20;99.90;;;2.79;73.30;102566.16;4983406;28;20434;-76
2023/03/01 06:57:20;;;;;;;15.40;6.15;;;1.70;99.90;;;3.55;70.62;102575.84;5011800;28;20044;-75
2023/03/01 06:59:47;;;;;;;16.55;7.38;;;2.40;99.90;;;5.30;67.15;102593.00;4993726;28;20041;-75
2023/03/01 07:02:14;;;;;;;15.82;6.13;;;3.20;99.90;;;6.48;63.48;102593.38;4973970;28;20125;-75
2023/03/01 07:04:41;;;;;;;12.27;4.85;;;4.00;99.90;;;7.50;60.43;102603.69;4994460;28;20034;-76
2023/03/01 07:07:08;;;;;;;12.13;6.18;;;4.90;99.90;;;8.36;58.32;102616.31;5007366;28;20030;-75
2023/03/01 07:09:34;;;;;;;11.75;5.40;;;5.60;99.90;;;8.85;56.12;102626.44;4998429;28;20052;-75
2023/03/01 07:12:00;;;;;;;11.57;5.00;;;6.20;99.90;;;8.52;54.84;102617.09;5010962;28;20038;-76
2023/03/01 07:14:26;;;;;;;12.48;4.55;;;6.50;99.90;;;8.12;55.37;102614.72;4985015;28;20034;-75
2023/03/01 07:16:55;;;;;;;10.88;4.68;;;6.70;99.90;;;9.43;54.08;102632.88;4977516;28;20506;-75
2023/03/01 07:19:22;;;;;;;15.20;5.68;;;7.10;99.90;;;10.16;52.11;102633.69;5001179;28;20042;-76
2023/03/01 07:21:48;;;;;;;10.13;5.38;;;7.60;99.90;;;10.47;51.54;102630.59;4988727;28;20065;-76
2023/03/01 07:24:14;;;;;;;10.05;5.15;;;8.10;99.90;;;11.12;50.21;102635.66;5003542;28;20037;-75
2023/03/01 07:26:40;;;;;;;12.48;5.20;;;8.70;99.90;;;11.61;48.78;102649.66;4995487;28;20026;-75
2023/03/01 07:29:09;;;;;;;9.60;4.82;;;9.20;99.90;;;11.68;48.53;102643.34;5009510;28;20428;-75
2023/03/01 07:31:36;;;;;;;9.73;4.82;;;9.50;99.90;;;11.18;48.31;102646.09;4990963;28;20041;-75
2023/03/01 07:34:02;;;;;;;11.20;5.43;;;9.60;99.90;;;11.40;49.25;102645.69;5001239;28;20037;-75
2023/03/01 07:36:28;;;;;;;10.00;5.13;;;9.90;99.90;;;12.00;48.07;102657.69;5009022;28;20665;-75
2023/03/01 07:38:55;;;;;;;11.77;5.10;;;10.30;99.90;;;12.51;47.00;102670.63;5010754;28;20045;-75
2023/03/01 07:41:21;;;;;;;9.02;4.68;;;10.70;99.90;;;12.35;47.14;102654.22;4995069;28;20059;-75
2023/03/01 07:43:47;;;;;;;8.93;4.13;;;11.10;99.90;;;12.56;46.82;102654.66;5010153;28;20029;-75
2023/03/01 07:46:13;;;;;;;10.90;5.35;;;11.30;99.90;;;12.96;46.63;102657.16;4991977;28;20045;-75
2023/03/01 07:48:39;;;;;;;8.48;4.97;;;11.80;99.90;;;13.78;45.38;102658.47;4999890;28;20029;-75
2023/03/01 07:51:07;;;;;;;10.65;4.93;;;12.30;99.90;;;14.33;44.24;102664.72;5001370;28;20059;-75
2023/03/01 07:53:33;;;;;;;9.20;5.07;;;12.80;99.90;;;14.36;43.81;102669.06;4991565;28;20453;-76
2023/03/01 07:56:11;;;;;;;9.38;4.57;;;13.30;99.90;;;14.94;42.68;102676.91;4991144;28;20125;-76
2023/03/01 07:58:41;;;;;;;8.95;5.10;;;13.80;99.40;;;15.64;42.44;102689.50;4995398;28;20087;-75
2023/03/01 08:01:10;;;;;;;8.73;4.95;;;14.40;98.50;;;16.11;41.35;102694.84;4984869;28;20556;-75
2023/03/01 08:03:37;;;;;;;8.63;4.65;;;15.10;98.20;;;16.69;40.75;102704.94;4991936;28;20405;-76
2023/03/01 08:06:06;;;;;;;10.07;4.78;;;15.80;97.10;;;17.20;39.93;102716.16;4989005;28;20069;-76
2023/03/01 08:08:33;;;;;;;9.02;4.70;;;16.50;95.80;;;17.78;39.19;102726.91;4988646;28;20056;-75
2023/03/01 08:11:01;;;;;;;10.63;4.85;;;17.20;95.60;;;18.27;38.67;102730.94;4965634;28;20060;-75
2023/03/01 08:13:28;;;;;;;6.97;4.28;;;17.70;94.30;;;18.58;38.09;102733.88;4972860;28;20091;-75
2023/03/01 08:15:54;;;;;;;8.63;4.93;;;18.20;93.30;;;18.58;38.03;102741.00;5009795;28;20037;-75
2023/03/01 08:18:21;;;;;;;6.88;4.57;;;18.60;93.00;;;18.99;37.80;102740.81;5009134;28;20045;-76
2023/03/01 08:20:47;;;;;;;8.52;4.90;;;19.00;92.30;;;19.23;37.05;102744.03;5009396;28;20490;-75
2023/03/01 08:23:13;;;;;;;8.85;5.15;;;19.40;91.40;;;19.47;36.84;102747.22;5005935;28;20514;-76
2023/03/01 08:25:39;;;;;;;8.20;5.00;;;19.70;91.50;;;19.68;36.55;102747.91;4981926;28;20052;-75
2023/03/01 08:28:05;;;;;;;9.32;5.60;;;20.00;90.90;;;19.62;36.17;102745.56;4985081;28;20065;-75
2023/03/01 08:30:32;;;;;;;9.30;4.68;;;20.20;89.60;;;19.57;36.39;102742.28;5009264;28;20050;-76
2023/03/01 08:32:58;;;;;;;9.35;5.72;;;20.20;89.40;;;19.53;36.73;102740.72;5008787;28;20045;-76
2023/03/01 08:35:24;;;;;;;10.50;5.85;;;20.40;89.60;;;19.57;36.35;102743.13;5000500;28;20026;-75
2023/03/01 08:37:50;;;;;;;13.60;6.90;;;20.50;87.90;;;19.79;36.56;102742.88;4999658;28;20091;-76
2023/03/01 08:40:16;;;;;;;14.27;6.72;;;20.70;88.30;;;19.92;36.23;102750.25;5000064;28;20041;-75
2023/03/01 08:42:45;;;;;;;8.93;5.82;;;20.90;88.60;;;19.85;36.03;102741.69;4990902;28;20038;-75
2023/03/01 08:45:11;;;;;;;32.42;28.65;;;20.90;87.20;;;19.53;36.51;102743.38;4990301;28;20046;-75
2023/03/01 08:47:37;;;;;;;11.75;6.78;;;20.70;85.10;;;19.32;36.30;102753.38;5009864;28;20026;-75
2023/03/01 08:50:04;;;;;;;10.35;7.03;;;20.50;86.30;;;18.97;36.93;102748.03;4996232;28;20390;-75
2023/03/01 08:52:31;;;;;;;11.82;7.50;;;20.30;86.60;;;18.61;37.31;102749.72;4971676;28;20034;-76
2023/03/01 08:54:57;;;;;;;11.85;7.32;;;20.00;88.90;;;18.59;37.86;102742.72;4982499;28;20128;-75
2023/03/01 08:57:23;;;;;;;13.15;8.25;;;19.80;87.60;;;18.44;37.82;102744.31;4991165;28;20086;-75
2023/03/01 08:59:48;;;;;;;12.23;8.93;;;19.60;88.70;;;18.20;38.32;102736.53;4963364;28;20557;-75
2023/03/01 09:02:17;;;;;;;15.98;10.45;;;19.40;88.10;;;17.73;38.96;102733.38;4991034;28;20109;-75
2023/03/01 09:04:44;;;;;;;18.08;11.23;;;19.20;89.80;;;17.54;39.53;102726.22;4987637;28;20124;-76
2023/03/01 09:07:13;;;;;;;22.17;12.48;;;18.90;90.00;;;17.32;39.83;102725.41;4983451;28;20090;-75
2023/03/01 09:09:39;;;;;;;19.50;12.10;;;18.50;90.00;;;16.86;40.38;102725.56;4991050;28;20038;-75
2023/03/01 09:12:05;;;;;;;16.42;10.70;;;18.10;90.50;;;16.59;41.17;102715.09;4992118;28;20044;-76
2023/03/01 09:14:31;;;;;;;18.10;12.50;;;17.80;91.40;;;16.42;41.58;102714.06;4995867;28;20037;-75
2023/03/01 09:16:57;;;;;;;16.20;11.15;;;17.20;91.30;;;15.43;42.60;102708.88;5005993;28;20041;-75
2023/03/01 09:19:23;;;;;;;18.00;11.48;;;16.20;91.20;;;13.97;44.06;102693.19;4999372;28;20163;-75
2023/03/01 09:21:52;;;;;;;19.50;12.25;;;15.40;92.70;;;13.50;45.74;102687.50;5005832;28;20033;-75
2023/03/01 09:24:21;;;;;;;28.65;21.35;;;14.80;94.10;;;12.99;46.95;102683.53;5010799;28;20543;-75
2023/03/01 09:26:50;;;;;;;24.27;14.32;;;14.10;94.90;;;12.43;48.40;102668.13;4982806;28;20121;-75
2023/03/01 09:29:19;;;;;;;26.33;14.23;;;13.60;95.70;;;11.90;49.77;102659.66;4982258;28;20030;-75
2023/03/01 09:31:45;;;;;;;22.33;13.98;;;12.80;96.60;;;11.11;51.21;102648.88;4983290;28;20723;-74
2023/03/01 09:34:13;;;;;;;24.48;14.30;;;12.10;97.50;;;10.32;53.06;102646.66;4960994;28;20491;-75
2023/03/01 09:36:43;;;;;;;28.90;16.55;;;11.40;99.50;;;9.80;55.20;102640.31;4972274;28;20038;-75
2023/03/01 09:39:11;;;;;;;24.05;14.93;;;11.00;99.90;;;9.94;55.27;102643.63;5010047;28;20089;-75
2023/03/01 09:41:59;;;;;;;23.83;15.25;;;10.70;99.90;;;9.88;55.80;102635.81;4983297;28;20022;-75
2023/03/01 09:45:01;;;;;;;22.92;14.55;;;10.60;99.90;;;9.57;56.36;102630.97;5006428;28;20061;-75
2023/03/01 09:47:32;;;;;;;23.88;15.40;;;10.10;99.90;;;8.88;58.00;102633.44;4995025;28;20576;-75
2023/03/01 09:50:20;;;;;;;25.08;15.85;;;9.80;99.90;;;8.59;59.46;102632.78;4976711;28;20517;-75
2023/03/01 09:53:01;;;;;;;26.35;16.55;;;9.60;99.90;;;8.16;61.00;102622.59;4991602;28;20040;-75
2023/03/01 09:55:38;;;;;;;26.85;16.92;;;9.40;99.90;;;8.09;61.88;102618.22;5004024;28;20038;-75
2023/03/01 09:58:43;;;;;;;26.83;17.23;;;9.20;99.90;;;7.83;62.77;102615.75;5012565;28;20034;-75
2023/03/01 10:01:36;;;;;;;29.80;17.08;;;9.00;99.90;;;7.57;63.77;102606.25;4989272;28;20519;-75
2023/03/01 10:04:45;;;;;;;27.42;16.67;;;8.90;99.90;;;7.47;64.23;102608.91;4989289;28;20044;-76
2023/03/01 10:07:39;;;;;;;30.45;17.90;;;8.80;99.90;;;7.49;65.57;102601.91;4989016;28;20042;-76
2023/03/01 10:10:30;;;;;;;27.27;16.50;;;8.90;99.90;;;7.75;65.57;102607.03;4995740;28;20077;-75
2023/03/01 10:13:22;;;;;;;27.63;17.40;;;9.10;99.90;;;8.01;64.09;102607.78;4997948;28;20529;-75
2023/03/01 10:15:57;;;;;;;32.38;18.10;;;9.30;99.90;;;8.27;64.00;102604.13;4985643;28;20089;-76
2023/03/01 10:18:28;;;;;;;32.35;17.95;;;9.50;99.90;;;8.46;63.93;102604.88;4997364;28;24946;-75
2023/03/01 10:21:12;;;;;;;28.73;17.70;;;9.70;99.90;;;8.60;64.05;102610.91;4994271;28;20083;-75